createdAt,value
2023-04-18T00:17:48.166Z,1.17
2023-04-18T00:23:45.432Z,1.38
2023-04-18T00:35:26.393Z,1.90
2023-04-18T00:41:18.201Z,1.67
2023-04-18T00:47:09.023Z,1.30
2023-04-18T00:53:07.789Z,0.90
2023-04-18T00:58:27.575Z,1.58
2023-04-18T01:10:58.945Z,1.70
2023-04-18T01:16:47.220Z,1.63
2023-04-18T01:22:18.654Z,1.90
2023-04-18T01:34:01.521Z,2.00
2023-04-18T01:39:41.509Z,2.63
2023-04-18T01:45:29.998Z,2.90
2023-04-18T01:51:37.410Z,2.58
2023-04-18T01:57:25.988Z,2.42
2023-04-18T02:08:44.064Z,3.15
2023-04-18T02:14:44.256Z,3.20
2023-04-18T02:20:28.056Z,3.00
2023-04-18T02:25:42.240Z,2.85
2023-04-18T02:31:32.115Z,2.95
2023-04-18T02:36:59.355Z,2.53
2023-04-18T02:42:22.654Z,2.67
2023-04-18T02:53:18.740Z,3.22
2023-04-18T02:59:18.049Z,3.03
2023-04-18T03:11:17.306Z,2.88
2023-04-18T03:22:15.263Z,3.35
2023-04-18T03:28:14.137Z,2.92
2023-04-18T03:39:17.165Z,2.80
2023-04-18T03:44:38.623Z,2.70
2023-04-18T03:50:40.281Z,2.50
2023-04-18T03:56:21.908Z,2.78
2023-04-18T04:01:48.580Z,2.63
2023-04-18T04:07:11.738Z,2.75
2023-04-18T04:12:51.810Z,2.45
2023-04-18T04:18:55.209Z,2.30
2023-04-18T04:24:45.996Z,2.35
2023-04-18T04:30:07.232Z,1.52
2023-04-18T04:35:45.106Z,2.67
2023-04-18T04:41:08.341Z,1.60
2023-04-18T04:47:03.736Z,1.83
2023-04-18T04:58:22.281Z,1.73
2023-04-18T05:04:09.291Z,1.15
2023-04-18T05:09:54.653Z,0.98
2023-04-18T05:15:11.464Z,1.25
2023-04-18T05:25:58.233Z,1.35
2023-04-18T05:31:45.324Z,1.25
2023-04-18T05:36:58.133Z,1.35
2023-04-18T05:42:13.003Z,1.35
2023-04-18T05:47:29.603Z,1.23
2023-04-18T05:52:39.466Z,1.50
2023-04-18T05:57:42.072Z,1.20
2023-04-18T06:02:46.272Z,1.10
2023-04-18T06:07:50.417Z,1.10
2023-04-18T06:12:52.892Z,1.17
2023-04-18T06:17:55.474Z,0.95
2023-04-18T06:22:58.029Z,1.17
2023-04-18T06:28:00.862Z,1.35
2023-04-18T06:33:04.652Z,1.17
2023-04-18T06:38:08.679Z,1.00
2023-04-18T06:43:12.677Z,1.02
2023-04-18T06:48:16.856Z,1.40
2023-04-18T06:53:21.275Z,1.40
2023-04-18T06:58:25.513Z,1.55
2023-04-18T07:03:30.044Z,0.93
2023-04-18T07:08:35.794Z,1.40
2023-04-18T07:13:40.584Z,1.48
2023-04-18T07:18:44.205Z,0.88
2023-04-18T07:23:49.024Z,1.40
2023-04-18T07:28:54.684Z,1.55
2023-04-18T07:34:00.682Z,1.15
2023-04-18T07:39:07.284Z,1.95
2023-04-18T07:44:14.409Z,1.35
2023-04-18T07:49:21.269Z,1.02
2023-04-18T07:54:30.432Z,1.98
2023-04-18T07:59:37.559Z,1.20
2023-04-18T08:04:50.967Z,2.05
2023-04-18T08:09:58.198Z,2.05
2023-04-18T08:15:08.905Z,2.17
2023-04-18T08:20:23.062Z,2.45
2023-04-18T08:25:30.669Z,2.33
2023-04-18T08:30:42.599Z,1.60
2023-04-18T08:36:00.934Z,1.83
2023-04-18T08:41:26.710Z,1.38
2023-04-18T08:46:35.663Z,1.50
2023-04-18T08:51:48.512Z,1.73
2023-04-18T08:57:19.891Z,2.10
2023-04-18T09:02:43.977Z,1.77
2023-04-18T09:07:54.562Z,1.48
2023-04-18T09:13:10.573Z,1.85
2023-04-18T09:18:24.268Z,1.85
2023-04-18T09:23:40.049Z,1.42
2023-04-18T09:28:55.095Z,1.77
2023-04-18T09:34:10.180Z,1.88
2023-04-18T09:39:31.249Z,1.70
2023-04-18T09:50:42.576Z,1.55
2023-04-18T09:56:02.025Z,0.95
2023-04-18T10:01:28.112Z,1.88
2023-04-18T10:06:47.646Z,1.30
2023-04-18T10:12:05.705Z,1.23
2023-04-18T10:17:19.757Z,1.63
2023-04-18T10:22:33.374Z,1.27
2023-04-18T10:27:52.511Z,1.33
2023-04-18T10:33:18.395Z,1.30
2023-04-18T10:38:47.701Z,1.25
2023-04-18T10:44:16.956Z,1.33
2023-04-18T10:49:32.761Z,1.98
2023-04-18T10:55:07.241Z,1.13
2023-04-18T11:00:20.701Z,1.27
2023-04-18T11:05:43.978Z,1.73
2023-04-18T11:11:02.213Z,1.75
2023-04-18T11:16:12.130Z,1.25
2023-04-18T11:21:22.505Z,2.05
2023-04-18T11:26:35.671Z,1.38
2023-04-18T11:31:58.657Z,1.63
2023-04-18T11:37:09.067Z,1.65
2023-04-18T11:42:24.435Z,1.50
2023-04-18T11:47:34.415Z,1.45
2023-04-18T11:52:57.930Z,1.45
2023-04-18T11:58:24.443Z,1.23
2023-04-18T12:03:47.937Z,1.17
2023-04-18T12:09:02.325Z,1.55
2023-04-18T12:14:37.025Z,1.38
2023-04-18T12:25:27.419Z,1.35
2023-04-18T12:30:37.962Z,2.05
2023-04-18T12:35:47.814Z,1.17
2023-04-18T12:40:58.005Z,1.42
2023-04-18T12:46:04.167Z,1.27
2023-04-18T12:51:39.096Z,1.40
2023-04-18T12:56:49.232Z,1.10
2023-04-18T13:01:58.346Z,1.35
2023-04-18T13:13:15.390Z,1.95
2023-04-18T13:18:29.388Z,1.60
2023-04-18T13:23:55.824Z,1.23
2023-04-18T13:29:11.367Z,1.73
2023-04-18T13:34:26.511Z,1.80
2023-04-18T13:39:39.922Z,1.13
2023-04-18T13:44:51.957Z,1.42
2023-04-18T13:50:28.215Z,1.70
2023-04-18T14:01:20.518Z,1.23
2023-04-18T14:06:35.006Z,1.67
2023-04-18T14:17:21.028Z,1.33
2023-04-18T14:28:19.209Z,1.30
2023-04-18T14:38:55.693Z,1.38
2023-04-18T14:43:58.293Z,1.83
2023-04-18T14:49:19.255Z,1.42
2023-04-18T14:54:21.641Z,0.93
2023-04-18T14:59:28.221Z,1.33
2023-04-18T15:04:30.805Z,1.35
2023-04-18T15:09:39.489Z,1.35
2023-04-18T15:14:41.831Z,1.13
2023-04-18T15:19:44.274Z,1.10
2023-04-18T15:24:47.820Z,1.42
2023-04-18T15:29:50.352Z,1.77
2023-04-18T15:34:52.994Z,1.40
2023-04-18T15:39:55.728Z,1.63
2023-04-18T15:44:58.284Z,1.67
2023-04-18T15:50:01.180Z,1.60
2023-04-18T15:55:06.609Z,1.80
2023-04-18T16:00:16.488Z,1.70
2023-04-18T16:05:19.066Z,1.83
2023-04-18T16:10:21.669Z,1.15
2023-04-18T16:15:24.338Z,1.83
2023-04-18T16:20:27.736Z,1.83
2023-04-18T16:25:30.551Z,1.65
2023-04-18T16:30:33.251Z,1.63
2023-04-18T16:35:36.247Z,3.05
2023-04-18T16:40:39.042Z,2.03
2023-04-18T16:45:41.848Z,1.63
2023-04-18T16:50:46.162Z,1.63
2023-04-18T16:55:50.744Z,1.65
2023-04-18T17:00:55.258Z,1.35
2023-04-18T17:06:01.994Z,1.42
2023-04-18T17:11:08.463Z,1.48
2023-04-18T17:16:13.114Z,1.30
2023-04-18T17:21:18.879Z,1.60
2023-04-18T17:26:25.457Z,1.42
2023-04-18T17:31:30.728Z,1.45
2023-04-18T17:36:35.627Z,1.77
2023-04-18T17:41:41.589Z,1.92
2023-04-18T17:46:48.943Z,2.05
2023-04-18T17:51:55.468Z,1.73
2023-04-18T17:56:58.354Z,1.73
2023-04-18T18:02:03.161Z,1.50
2023-04-18T18:07:09.512Z,1.45
2023-04-18T18:27:33.298Z,1.10
2023-04-18T18:32:39.938Z,1.35
2023-04-18T18:37:46.564Z,1.10
2023-04-18T18:42:56.979Z,1.10
2023-04-18T18:48:03.131Z,1.42
2023-04-18T18:53:09.961Z,1.13
2023-04-18T18:58:16.946Z,0.90
2023-04-18T19:03:26.258Z,0.88
2023-04-18T19:08:33.041Z,1.02
2023-04-18T19:13:40.934Z,1.17
2023-04-18T19:18:48.703Z,1.60
2023-04-18T19:23:55.667Z,0.82
2023-04-18T19:29:03.064Z,0.55
2023-04-18T19:34:12.053Z,0.95
2023-04-18T19:39:23.879Z,0.75
2023-04-18T19:44:29.984Z,0.75
2023-04-18T19:49:37.697Z,1.10
2023-04-18T19:54:45.716Z,0.85
2023-04-18T19:59:51.710Z,0.93
2023-04-18T20:04:59.201Z,0.82
2023-04-18T20:10:05.805Z,0.90
2023-04-18T20:15:31.669Z,0.70
2023-04-18T20:20:39.398Z,1.25
2023-04-18T20:25:46.258Z,1.52
2023-04-18T20:30:56.030Z,0.80
2023-04-18T20:36:42.836Z,1.02
2023-04-18T20:42:07.910Z,0.95
2023-04-18T20:47:15.818Z,0.98
2023-04-18T20:52:41.247Z,0.73
2023-04-18T20:58:05.108Z,0.95
2023-04-18T21:03:17.832Z,0.80
2023-04-18T21:08:28.344Z,0.82
2023-04-18T21:13:39.150Z,0.90
2023-04-18T21:18:45.597Z,0.70
2023-04-18T21:24:29.769Z,0.63
2023-04-18T21:29:37.248Z,0.68
2023-04-18T21:34:46.272Z,0.80
2023-04-18T21:39:54.487Z,0.80
2023-04-18T21:45:00.302Z,1.02
2023-04-18T21:50:10.474Z,0.95
2023-04-18T21:55:36.110Z,1.02
2023-04-18T22:00:41.849Z,1.00
2023-04-18T22:05:48.713Z,1.13
2023-04-18T22:11:15.244Z,1.30
2023-04-18T22:16:43.760Z,1.00
2023-04-18T22:22:10.830Z,1.00
2023-04-18T22:27:16.912Z,1.05
2023-04-18T22:32:23.638Z,1.00
2023-04-18T22:37:32.270Z,1.38
2023-04-18T22:42:41.987Z,1.52
2023-04-18T22:48:10.338Z,0.95
2023-04-18T22:53:25.682Z,1.45
2023-04-18T22:58:44.264Z,1.35
2023-04-18T23:03:54.470Z,1.25
2023-04-18T23:09:01.004Z,1.85
2023-04-18T23:14:27.027Z,1.33
2023-04-18T23:19:37.355Z,1.85
2023-04-18T23:24:49.697Z,2.15
2023-04-18T23:30:05.955Z,1.48
2023-04-18T23:35:14.765Z,1.13
2023-04-18T23:40:28.486Z,0.90
2023-04-18T23:50:58.120Z,1.15
2023-04-18T23:56:08.203Z,1.48
